Time;durP1;ratioP1;P1;durP2;ratioP2;P2;SDS_P1;SDS_P2;PMS_P1;PMS_P2;Temp;Humidity;BMP_temperature;BMP_pressure;BME280_temperature;BME280_humidity;BME280_pressure;Samples;Min_cycle;Max_cycle;Signal;HPM_P1;HPM_P2
2023/06/22 00:01:24;;;;;;;14.60;13.10;;;;;;;20.06;76.72;100013.52;106140;1256;71432;-75
2023/06/22 00:03:52;;;;;;;16.60;12.80;;;;;;;20.01;76.87;100013.46;106716;1259;61067;-74
2023/06/22 00:06:20;;;;;;;14.00;12.60;;;;;;;20.05;76.70;100013.27;107446;1253;60407;-76
2023/06/22 00:08:47;;;;;;;16.30;13.30;;;;;;;20.07;76.73;100020.00;107319;1251;71846;-75
2023/06/22 00:11:15;;;;;;;15.50;13.50;;;;;;;20.02;76.50;100024.66;105980;1251;68828;-76
2023/06/22 00:13:42;;;;;;;14.60;13.20;;;;;;;19.99;76.56;100019.50;105996;1253;74367;-73
2023/06/22 00:16:09;;;;;;;17.00;13.70;;;;;;;19.97;76.85;100016.46;105998;1253;59715;-76
2023/06/22 00:18:37;;;;;;;13.30;11.50;;;;;;;19.95;76.95;100016.61;105860;1259;60039;-76
2023/06/22 00:21:06;;;;;;;13.50;12.10;;;;;;;20.00;77.04;100017.52;105698;1257;75209;-76
2023/06/22 00:23:34;;;;;;;15.00;13.40;;;;;;;20.02;76.73;100017.20;105747;1257;68740;-78
2023/06/22 00:26:02;;;;;;;14.30;12.80;;;;;;;19.95;76.57;100018.56;105817;1254;72414;-79
2023/06/22 00:28:30;;;;;;;15.40;12.90;;;;;;;19.86;76.56;100021.58;105811;1256;59625;-75
2023/06/22 00:30:57;;;;;;;15.40;12.80;;;;;;;19.80;76.83;100021.65;105891;1256;60158;-76
2023/06/22 00:33:25;;;;;;;16.30;12.50;;;;;;;19.76;77.00;100026.15;105832;1259;73039;-76
2023/06/22 00:35:53;;;;;;;17.90;13.30;;;;;;;19.79;76.93;100027.03;105846;1251;70080;-75
2023/06/22 00:38:21;;;;;;;14.70;12.90;;;;;;;19.81;76.86;100025.24;105956;1256;73145;-76
2023/06/22 00:40:48;;;;;;;17.90;13.50;;;;;;;19.75;76.90;100025.55;108192;1250;59549;-74
2023/06/22 00:43:16;;;;;;;16.60;13.90;;;;;;;19.70;77.00;100027.84;108935;1251;59349;-76
2023/06/22 00:45:43;;;;;;;14.30;12.80;;;;;;;19.67;77.29;100029.90;106709;1256;71430;-76
2023/06/22 00:48:11;;;;;;;19.70;13.60;;;;;;;19.64;77.54;100030.34;105948;1256;70128;-75
2023/06/22 00:50:38;;;;;;;14.80;12.90;;;;;;;19.59;77.58;100036.92;105837;1257;71598;-76
2023/06/22 00:53:07;;;;;;;14.70;13.00;;;;;;;19.63;77.42;100036.02;105852;1254;61621;-75
2023/06/22 00:55:38;;;;;;;15.60;12.60;;;;;;;19.65;77.56;100037.88;106093;1250;59631;-75
2023/06/22 00:58:07;;;;;;;15.80;13.30;;;;;;;19.61;77.47;100035.42;106070;1251;73127;-77
2023/06/22 01:00:35;;;;;;;17.20;12.40;;;;;;;19.57;77.51;100037.36;106007;1251;70521;-77
2023/06/22 01:03:03;;;;;;;14.70;12.40;;;;;;;19.56;77.56;100037.80;105621;1251;72546;-75
2023/06/22 01:05:31;;;;;;;13.30;11.80;;;;;;;19.55;77.77;100040.29;106564;1257;63060;-75
2023/06/22 01:08:16;;;;;;;15.70;13.00;;;;;;;19.61;77.69;100040.06;106537;1256;60364;-75
2023/06/22 01:10:56;;;;;;;14.30;12.90;;;;;;;19.66;77.62;100041.20;107494;1250;73773;-73
2023/06/22 01:13:43;;;;;;;16.00;13.50;;;;;;;19.64;77.87;100041.13;107897;1251;68709;-73
2023/06/22 01:16:20;;;;;;;16.50;13.50;;;;;;;19.61;77.89;100044.30;107723;1253;71906;-75
2023/06/22 01:18:48;;;;;;;16.60;12.90;;;;;;;19.58;78.14;100043.52;107802;1253;61786;-75
2023/06/22 01:21:17;;;;;;;15.40;12.90;;;;;;;19.61;78.43;100044.55;106474;1259;60794;-75
2023/06/22 01:24:03;;;;;;;15.10;13.70;;;;;;;19.63;78.26;100046.36;106247;1251;74280;-75
2023/06/22 01:26:55;;;;;;;14.50;13.00;;;;;;;19.56;78.98;100047.48;106058;1251;68375;-75
2023/06/22 01:29:23;;;;;;;17.00;13.50;;;;;;;19.50;79.44;100048.36;106025;1251;72453;-73
2023/06/22 01:31:50;;;;;;;17.00;12.90;;;;;;;19.46;79.52;100047.31;106044;1254;60867;-76
2023/06/22 01:34:17;;;;;;;14.00;12.30;;;;;;;19.42;79.55;100050.45;106121;1257;60884;-75
2023/06/22 01:36:45;;;;;;;13.80;11.90;;;;;;;19.49;79.70;100050.70;105979;1251;73778;-79
2023/06/22 01:39:14;;;;;;;15.60;12.70;;;;;;;19.53;79.69;100051.86;108277;1251;70247;-76
2023/06/22 01:41:44;;;;;;;14.20;12.70;;;;;;;19.50;79.62;100050.85;108302;1251;70569;-74
2023/06/22 01:44:14;;;;;;;15.20;12.50;;;;;;;19.44;79.83;100046.83;106643;1258;60524;-76
2023/06/22 01:46:42;;;;;;;15.40;13.90;;;;;;;19.37;79.83;100047.05;106258;1251;60558;-77
2023/06/22 01:49:09;;;;;;;13.70;11.80;;;;;;;19.31;79.78;100046.94;106083;1251;72430;-78
2023/06/22 01:51:37;;;;;;;13.70;11.10;;;;;;;19.32;79.60;100044.44;105920;1258;69256;-72
2023/06/22 01:54:06;;;;;;;12.90;11.50;;;;;;;19.32;79.37;100045.67;105789;1254;74876;-73
2023/06/22 01:56:34;;;;;;;13.30;11.20;;;;;;;19.27;79.64;100046.79;105925;1254;60556;-75
2023/06/22 01:59:25;;;;;;;13.80;12.40;;;;;;;19.23;79.96;100047.68;105723;1260;60377;-76
2023/06/22 02:01:59;;;;;;;14.40;11.80;;;;;;;19.18;80.20;100044.61;105853;1256;73835;-76
2023/06/22 02:04:30;;;;;;;15.20;11.90;;;;;;;19.14;80.35;100043.98;106089;1251;69405;-74
2023/06/22 02:06:58;;;;;;;18.00;12.00;;;;;;;19.11;80.27;100044.91;106548;1251;71421;-76
2023/06/22 02:09:26;;;;;;;13.30;10.80;;;;;;;19.19;80.11;100046.84;108024;1251;60402;-75
2023/06/22 02:11:55;;;;;;;14.00;11.70;;;;;;;19.24;80.23;100044.28;105858;1254;60655;-77
2023/06/22 02:14:23;;;;;;;11.80;10.40;;;;;;;19.24;79.79;100040.34;105874;1251;72374;-75
2023/06/22 02:16:51;;;;;;;13.30;10.70;;;;;;;19.24;79.88;100039.31;105945;1256;68690;-74
2023/06/22 02:19:23;;;;;;;13.00;11.00;;;;;;;19.21;79.65;100045.14;106167;1251;71104;-73
2023/06/22 02:21:50;;;;;;;11.50;10.10;;;;;;;19.19;79.85;100047.92;106560;1251;60785;-74
2023/06/22 02:24:23;;;;;;;12.90;10.20;;;;;;;19.25;79.33;100043.08;107180;1251;60348;-75
2023/06/22 02:26:50;;;;;;;12.50;11.10;;;;;;;19.30;78.97;100043.08;106463;1252;73879;-74
2023/06/22 02:29:19;;;;;;;13.70;11.10;;;;;;;19.29;78.76;100042.55;105914;1256;69308;-76
2023/06/22 02:31:47;;;;;;;12.90;11.60;;;;;;;19.28;79.05;100043.59;106182;1250;72738;-76
2023/06/22 02:34:18;;;;;;;12.70;11.30;;;;;;;19.25;78.88;100046.10;106145;1252;60534;-76
2023/06/22 02:36:50;;;;;;;11.20;10.10;;;;;;;19.22;79.07;100044.59;107505;1251;60520;-78
2023/06/22 02:39:25;;;;;;;13.80;10.90;;;;;;;19.23;79.03;100043.55;109338;1249;74750;-78
2023/06/22 02:41:53;;;;;;;10.80;9.50;;;;;;;19.35;78.54;100036.30;108171;1250;68737;-79
2023/06/22 02:44:22;;;;;;;13.00;10.40;;;;;;;19.43;78.35;100041.48;106779;1251;71580;-78
2023/06/22 02:46:49;;;;;;;14.00;10.60;;;;;;;19.46;78.59;100042.39;106126;1256;60460;-78
2023/06/22 02:49:17;;;;;;;11.10;9.60;;;;;;;19.47;78.48;100039.80;105915;1258;60374;-78
2023/06/22 02:51:46;;;;;;;16.30;10.40;;;;;;;19.45;78.02;100042.55;105934;1250;72606;-77
2023/06/22 02:54:14;;;;;;;13.60;10.30;;;;;;;19.41;77.89;100039.73;105889;1256;69318;-79
2023/06/22 02:56:45;;;;;;;14.20;10.60;;;;;;;19.39;78.13;100042.90;105992;1257;72715;-78
2023/06/22 02:59:12;;;;;;;13.80;9.90;;;;;;;19.45;78.51;100047.73;106055;1256;60514;-78
2023/06/22 03:01:40;;;;;;;15.20;10.10;;;;;;;19.51;78.58;100047.69;106162;1257;60342;-78
2023/06/22 03:04:31;;;;;;;13.50;10.30;;;;;;;19.49;78.51;100047.26;107952;1250;75020;-77
2023/06/22 03:07:01;;;;;;;14.20;10.60;;;;;;;19.48;78.36;100045.52;107750;1256;68985;-77
2023/06/22 03:09:30;;;;;;;12.20;9.70;;;;;;;19.51;78.50;100048.35;105920;1253;72677;-77
2023/06/22 03:11:58;;;;;;;11.50;9.60;;;;;;;19.55;78.80;100051.80;105861;1257;60380;-77
2023/06/22 03:14:30;;;;;;;16.30;10.20;;;;;;;19.57;78.50;100048.89;105873;1254;60409;-78
2023/06/22 03:17:02;;;;;;;13.70;9.60;;;;;;;19.62;78.44;100050.80;105981;1250;73866;-75
2023/06/22 03:19:31;;;;;;;13.30;9.50;;;;;;;19.74;77.41;100048.64;105934;1250;70007;-77
2023/06/22 03:22:00;;;;;;;13.50;9.50;;;;;;;19.86;76.33;100052.20;105945;1254;72529;-76
2023/06/22 03:24:30;;;;;;;15.60;10.30;;;;;;;19.91;76.09;100054.77;106429;1254;60576;-78
2023/06/22 03:26:58;;;;;;;12.90;11.20;;;;;;;19.95;75.54;100055.23;106527;1250;62671;-77
2023/06/22 03:29:25;;;;;;;11.80;10.40;;;;;;;20.01;75.88;100055.16;107642;1250;74158;-76
2023/06/22 03:31:58;;;;;;;18.00;10.90;;;;;;;20.08;75.79;100054.05;108479;1253;68742;-78
2023/06/22 03:34:26;;;;;;;12.50;11.10;;;;;;;20.15;75.07;100055.18;107536;1253;71119;-77
2023/06/22 03:36:54;;;;;;;14.80;10.90;;;;;;;20.22;74.67;100055.24;109118;1253;60466;-78
2023/06/22 03:39:23;;;;;;;14.90;11.30;;;;;;;20.30;74.56;100051.17;108442;1254;60762;-79
2023/06/22 03:41:51;;;;;;;17.10;11.00;;;;;;;20.47;74.08;100050.56;105794;1252;72733;-75
2023/06/22 03:44:18;;;;;;;14.50;11.40;;;;;;;20.60;74.09;100054.70;105857;1253;68716;-76
2023/06/22 03:46:46;;;;;;;15.20;11.10;;;;;;;20.67;74.35;100052.02;105775;1253;74143;-77
2023/06/22 03:49:13;;;;;;;16.60;11.80;;;;;;;20.73;74.03;100050.90;105856;1253;60488;-77
2023/06/22 03:51:41;;;;;;;12.70;11.60;;;;;;;20.81;73.54;100052.95;105949;1256;60430;-75
2023/06/22 03:54:08;;;;;;;16.10;10.60;;;;;;;20.88;73.54;100051.42;105916;1257;73843;-75
2023/06/22 03:56:36;;;;;;;13.70;12.20;;;;;;;20.94;74.26;100046.89;105876;1257;70014;-74
2023/06/22 03:59:03;;;;;;;13.70;11.80;;;;;;;20.99;73.54;100050.02;105800;1253;71694;-73
2023/06/22 04:01:31;;;;;;;14.20;11.70;;;;;;;21.07;73.58;100053.82;105846;1255;61850;-76
2023/06/22 04:03:58;;;;;;;16.00;11.80;;;;;;;21.22;73.74;100054.70;105903;1257;60500;-78
2023/06/22 04:06:26;;;;;;;13.20;11.90;;;;;;;21.37;73.45;100055.58;106028;1257;73831;-78
2023/06/22 04:08:53;;;;;;;12.80;11.00;;;;;;;21.46;73.40;100062.20;105848;1260;69036;-77
2023/06/22 04:11:20;;;;;;;15.70;12.80;;;;;;;21.55;73.24;100062.64;105782;1259;72608;-78
2023/06/22 04:13:49;;;;;;;14.10;11.40;;;;;;;21.63;73.10;100065.38;105781;1251;60447;-76
2023/06/22 04:16:16;;;;;;;15.60;12.20;;;;;;;21.70;72.61;100066.23;105889;1257;60503;-75
2023/06/22 04:18:43;;;;;;;15.70;12.50;;;;;;;21.79;72.21;100071.27;105920;1251;72959;-76
2023/06/22 04:21:11;;;;;;;15.20;11.90;;;;;;;21.87;72.59;100072.98;105949;1252;69040;-77
2023/06/22 04:23:39;;;;;;;14.50;12.20;;;;;;;21.93;72.05;100079.19;106023;1254;72714;-76
2023/06/22 04:26:07;;;;;;;15.30;13.20;;;;;;;22.01;72.07;100080.23;105918;1257;60505;-76
2023/06/22 04:28:35;;;;;;;14.10;12.60;;;;;;;22.07;71.05;100083.06;106389;1253;60465;-78
2023/06/22 04:31:02;;;;;;;13.90;12.60;;;;;;;22.13;70.80;100088.36;105982;1253;73864;-77
2023/06/22 04:33:31;;;;;;;14.70;13.30;;;;;;;22.29;71.10;100086.72;106917;1253;70457;-75
2023/06/22 04:36:00;;;;;;;16.30;12.90;;;;;;;22.47;70.34;100089.23;107949;1253;71195;-74
2023/06/22 04:38:28;;;;;;;14.00;12.60;;;;;;;22.60;69.42;100089.04;107471;1253;60489;-78
2023/06/22 04:40:55;;;;;;;14.50;12.60;;;;;;;22.75;69.19;100085.32;106851;1253;60473;-77
2023/06/22 04:43:23;;;;;;;16.60;12.70;;;;;;;22.91;69.18;100090.70;106285;1253;72701;-78
2023/06/22 04:45:52;;;;;;;14.80;13.10;;;;;;;23.06;67.89;100088.17;106135;1253;70196;-79
2023/06/22 04:48:20;;;;;;;25.10;20.20;;;;;;;23.18;67.44;100087.35;105914;1257;73567;-78
2023/06/22 04:50:47;;;;;;;18.70;15.80;;;;;;;23.27;67.06;100089.23;107545;1253;60432;-79
2023/06/22 04:53:15;;;;;;;17.50;14.20;;;;;;;23.39;66.53;100091.11;108304;1257;60578;-79
2023/06/22 04:55:46;;;;;;;15.60;14.10;;;;;;;23.50;66.44;100090.87;106341;1254;74788;-79
2023/06/22 04:58:15;;;;;;;16.90;15.20;;;;;;;23.60;65.94;100092.60;106618;1254;69992;-81
2023/06/22 05:00:44;;;;;;;14.60;13.20;;;;;;;23.67;64.99;100092.94;105901;1258;72463;-81
2023/06/22 05:03:12;;;;;;;14.50;13.10;;;;;;;23.72;64.41;100094.92;105948;1254;60400;-81
2023/06/22 05:05:47;;;;;;;14.40;13.00;;;;;;;23.77;63.62;100091.31;105869;1254;60550;-83
2023/06/22 05:08:15;;;;;;;15.50;14.10;;;;;;;23.82;63.82;100093.52;105870;1254;72798;-80
2023/06/22 05:10:42;;;;;;;15.20;13.70;;;;;;;23.86;63.87;100093.55;106687;1259;68989;-84
2023/06/22 05:13:30;;;;;;;14.70;13.30;;;;;;;23.91;64.39;100094.77;106476;1256;72484;-82
2023/06/22 05:16:01;;;;;;;16.50;14.90;;;;;;;23.96;64.76;100093.91;107976;1255;60418;-82
2023/06/22 05:18:30;;;;;;;15.90;14.30;;;;;;;24.00;64.85;100093.98;108973;1254;59265;-81
2023/06/22 05:20:59;;;;;;;17.90;14.80;;;;;;;24.04;65.15;100091.80;109235;1254;73052;-81
2023/06/22 05:23:27;;;;;;;16.60;14.90;;;;;;;24.16;65.19;100092.52;107727;1254;68852;-79
2023/06/22 05:25:57;;;;;;;16.20;14.40;;;;;;;24.32;65.18;100098.34;106127;1255;71139;-77
2023/06/22 05:28:26;;;;;;;17.80;14.70;;;;;;;24.45;64.59;100100.09;106608;1254;60508;-83
2023/06/22 05:30:54;;;;;;;17.00;15.40;;;;;;;24.52;64.48;100100.16;106529;1254;60470;-81
2023/06/22 05:33:21;;;;;;;17.90;15.90;;;;;;;24.59;64.09;100096.07;108174;1254;72864;-79
2023/06/22 05:35:49;;;;;;;16.40;14.90;;;;;;;24.68;64.12;100094.34;108987;1254;68922;-81
2023/06/22 05:38:16;;;;;;;19.50;15.00;;;;;;;24.78;63.71;100095.77;107455;1253;71397;-81
2023/06/22 05:40:44;;;;;;;18.00;16.20;;;;;;;24.82;63.23;100087.11;107281;1255;60546;-80
2023/06/22 05:43:11;;;;;;;18.10;16.40;;;;;;;24.84;62.77;100085.30;106638;1254;59747;-77
2023/06/22 05:45:39;;;;;;;20.00;15.70;;;;;;;24.87;62.71;100083.09;107401;1254;72964;-77
2023/06/22 05:48:07;;;;;;;17.60;15.00;;;;;;;24.91;62.23;100082.98;107713;1255;68654;-79
2023/06/22 05:50:34;;;;;;;17.10;14.20;;;;;;;24.97;61.85;100083.10;106784;1258;71402;-73
2023/06/22 05:53:01;;;;;;;16.30;14.10;;;;;;;25.04;60.83;100081.58;105643;1254;60533;-75
2023/06/22 05:55:29;;;;;;;15.00;13.60;;;;;;;25.09;60.71;100080.23;105782;1253;60931;-74
2023/06/22 05:57:56;;;;;;;17.10;13.20;;;;;;;25.17;59.50;100076.66;105922;1258;73718;-76
2023/06/22 06:00:24;;;;;;;19.30;13.00;;;;;;;25.25;58.70;100075.69;105903;1251;69457;-76
2023/06/22 06:02:51;;;;;;;14.60;13.10;;;;;;;25.31;57.74;100071.80;105847;1253;72686;-76
2023/06/22 06:05:19;;;;;;;13.60;12.10;;;;;;;25.37;57.29;100071.56;106001;1256;62598;-77
2023/06/22 06:07:46;;;;;;;12.20;10.80;;;;;;;25.43;55.96;100076.83;105938;1253;60523;-77
2023/06/22 06:10:14;;;;;;;12.00;10.90;;;;;;;25.48;54.65;100070.36;105752;1259;72625;-76
2023/06/22 06:12:41;;;;;;;14.70;11.20;;;;;;;25.54;54.62;100067.15;105924;1257;68790;-76
2023/06/22 06:15:09;;;;;;;12.80;11.60;;;;;;;25.59;54.79;100069.66;106121;1251;71203;-79
2023/06/22 06:17:51;;;;;;;11.60;10.40;;;;;;;25.62;54.19;100068.07;106085;1252;60482;-78
2023/06/22 06:20:20;;;;;;;13.30;11.80;;;;;;;25.65;54.15;100067.55;105966;1253;60336;-77
2023/06/22 06:22:48;;;;;;;11.10;10.10;;;;;;;25.70;54.42;100067.20;106048;1257;73879;-76
2023/06/22 06:25:18;;;;;;;11.40;10.30;;;;;;;25.76;53.04;100067.04;106013;1253;70269;-77
2023/06/22 06:27:46;;;;;;;13.10;11.60;;;;;;;25.82;52.24;100064.59;105887;1254;71199;-74
2023/06/22 06:30:15;;;;;;;11.50;10.40;;;;;;;25.89;52.01;100064.90;107552;1253;60357;-75
2023/06/22 06:32:45;;;;;;;11.10;9.80;;;;;;;25.95;52.03;100062.52;109012;1252;60384;-76
2023/06/22 06:35:15;;;;;;;11.70;10.50;;;;;;;26.02;51.66;100064.15;107752;1254;72594;-77
2023/06/22 06:37:45;;;;;;;12.40;11.10;;;;;;;26.08;51.69;100063.80;106741;1253;71981;-73
2023/06/22 06:40:12;;;;;;;15.10;11.70;;;;;;;26.14;51.64;100063.66;106811;1253;71071;-77
2023/06/22 06:42:44;;;;;;;13.20;11.90;;;;;;;26.20;51.93;100060.15;106156;1252;60462;-77
2023/06/22 06:45:13;;;;;;;12.30;11.10;;;;;;;26.26;51.81;100059.44;106636;1258;60518;-77
2023/06/22 06:47:40;;;;;;;13.60;11.50;;;;;;;26.26;51.24;100060.14;106609;1254;72612;-77
2023/06/22 06:50:08;;;;;;;17.90;12.30;;;;;;;26.17;51.83;100059.88;106122;1253;70088;-75
2023/06/22 06:52:36;;;;;;;13.70;12.00;;;;;;;26.06;52.28;100058.61;105978;1253;71082;-77
2023/06/22 06:55:11;;;;;;;14.60;13.00;;;;;;;25.96;52.78;100058.48;106955;1253;61005;-77
2023/06/22 06:57:41;;;;;;;14.40;12.50;;;;;;;25.86;53.43;100056.77;107666;1253;60402;-77
2023/06/22 07:00:11;;;;;;;18.10;12.90;;;;;;;25.77;54.22;100056.05;106995;1253;72550;-75
2023/06/22 07:02:40;;;;;;;15.40;12.70;;;;;;;25.69;54.08;100057.53;105965;1259;71047;-77
2023/06/22 07:05:08;;;;;;;18.90;14.40;;;;;;;25.62;53.70;100058.06;105907;1260;71983;-79
2023/06/22 07:07:36;;;;;;;20.40;14.50;;;;;;;25.60;53.95;100059.14;105840;1259;60970;-76
2023/06/22 07:10:05;;;;;;;14.90;13.40;;;;;;;25.64;54.44;100055.58;105765;1253;60553;-78
2023/06/22 07:12:33;;;;;;;17.70;15.90;;;;;;;25.68;55.52;100058.05;105874;1251;74056;-78
2023/06/22 07:15:07;;;;;;;18.40;16.30;;;;;;;25.70;54.99;100057.73;105953;1254;69946;-78
2023/06/22 07:17:35;;;;;;;16.10;14.20;;;;;;;25.70;54.02;100056.98;106085;1260;73482;-75
2023/06/22 07:20:10;;;;;;;16.80;15.10;;;;;;;25.69;54.04;100055.39;105857;1253;60418;-72
2023/06/22 07:22:38;;;;;;;16.30;14.80;;;;;;;25.69;54.61;100052.27;106049;1253;61558;-75
2023/06/22 07:25:09;;;;;;;17.40;14.50;;;;;;;25.70;53.97;100049.59;106082;1257;72988;-76
2023/06/22 07:27:38;;;;;;;15.80;13.60;;;;;;;25.74;54.48;100052.88;106012;1258;68708;-74
2023/06/22 07:30:06;;;;;;;16.50;14.70;;;;;;;25.82;56.15;100052.29;109013;1252;71669;-75
2023/06/22 07:32:33;;;;;;;17.70;15.20;;;;;;;25.91;56.22;100055.73;108782;1251;60061;-78
2023/06/22 07:35:02;;;;;;;17.90;15.10;;;;;;;26.02;56.60;100056.63;106339;1251;60486;-77
2023/06/22 07:37:29;;;;;;;16.30;14.70;;;;;;;26.13;55.43;100057.99;106032;1254;72581;-77
2023/06/22 07:39:58;;;;;;;17.40;14.00;;;;;;;26.25;55.03;100057.25;106054;1254;70537;-78
2023/06/22 07:42:26;;;;;;;14.90;13.40;;;;;;;26.38;55.25;100060.03;105821;1254;72525;-80
2023/06/22 07:44:54;;;;;;;17.50;15.60;;;;;;;26.45;54.68;100058.92;105878;1257;62518;-79
2023/06/22 07:47:26;;;;;;;15.90;13.90;;;;;;;26.48;53.42;100067.48;106039;1253;60532;-78
2023/06/22 07:50:00;;;;;;;15.10;13.50;;;;;;;26.45;52.55;100068.30;106751;1260;74140;-77
2023/06/22 07:52:29;;;;;;;15.40;12.90;;;;;;;26.41;51.78;100068.45;106362;1253;69983;-76
2023/06/22 07:54:56;;;;;;;15.30;13.30;;;;;;;26.39;51.85;100068.21;106002;1258;72666;-77
2023/06/22 07:57:31;;;;;;;18.10;13.00;;;;;;;26.37;51.50;100072.95;106124;1257;60350;-77
2023/06/22 08:00:00;;;;;;;22.30;15.40;;;;;;;26.31;52.18;100075.27;106148;1253;60426;-79
2023/06/22 08:02:40;;;;;;;15.50;13.80;;;;;;;26.27;52.79;100074.58;106628;1259;73962;-78
2023/06/22 08:05:11;;;;;;;18.20;13.80;;;;;;;26.22;52.88;100075.09;107373;1253;69192;-78
2023/06/22 08:07:58;;;;;;;15.80;13.80;;;;;;;26.18;52.61;100071.21;107625;1256;71703;-79
2023/06/22 08:10:26;;;;;;;14.50;13.10;;;;;;;26.16;53.43;100077.41;107011;1258;60571;-79
2023/06/22 08:12:53;;;;;;;17.90;14.90;;;;;;;26.17;53.26;100074.58;105981;1253;60472;-78
2023/06/22 08:15:21;;;;;;;15.10;13.10;;;;;;;26.17;53.12;100078.27;105816;1251;74254;-79
2023/06/22 08:17:49;;;;;;;14.30;12.60;;;;;;;26.18;53.25;100077.69;106105;1258;68813;-77
2023/06/22 08:20:17;;;;;;;14.50;12.70;;;;;;;26.18;52.46;100079.00;106029;1251;71383;-77
2023/06/22 08:22:44;;;;;;;16.10;12.70;;;;;;;26.19;53.22;100082.93;106193;1253;60441;-77
2023/06/22 08:25:12;;;;;;;14.70;13.10;;;;;;;26.21;53.86;100083.14;106854;1257;60603;-75
2023/06/22 08:27:40;;;;;;;15.70;12.60;;;;;;;26.22;54.07;100082.52;107612;1251;72550;-77
2023/06/22 08:30:10;;;;;;;14.50;12.90;;;;;;;26.27;54.91;100083.46;108652;1251;71341;-76
2023/06/22 08:32:39;;;;;;;14.30;12.90;;;;;;;26.35;54.73;100081.70;107685;1256;71218;-77
2023/06/22 08:35:10;;;;;;;15.50;12.70;;;;;;;26.41;53.19;100077.21;105897;1253;60451;-76
2023/06/22 08:37:38;;;;;;;14.40;12.20;;;;;;;26.48;51.57;100081.33;106120;1252;60596;-78
2023/06/22 08:40:09;;;;;;;13.40;12.00;;;;;;;26.56;51.19;100078.16;105992;1253;72629;-78
2023/06/22 08:42:37;;;;;;;13.30;12.00;;;;;;;26.64;50.53;100080.56;106035;1251;69938;-82
2023/06/22 08:45:06;;;;;;;13.50;12.30;;;;;;;26.76;50.14;100079.62;106396;1256;71451;-78
2023/06/22 08:47:34;;;;;;;13.70;12.40;;;;;;;26.96;50.13;100076.95;105996;1253;60519;-75
2023/06/22 08:50:03;;;;;;;13.00;11.80;;;;;;;27.22;49.39;100074.73;105568;1253;60403;-74
2023/06/22 08:52:30;;;;;;;14.70;12.30;;;;;;;27.54;49.01;100074.27;105996;1258;74226;-72
2023/06/22 08:54:58;;;;;;;12.50;11.40;;;;;;;27.88;48.33;100070.07;105452;1258;69107;-74
2023/06/22 08:57:26;;;;;;;13.20;11.90;;;;;;;28.21;47.52;100068.86;105519;1254;72687;-75
2023/06/22 08:59:58;;;;;;;13.60;12.40;;;;;;;28.52;46.96;100064.95;105609;1253;60447;-74
2023/06/22 09:02:30;;;;;;;12.60;11.40;;;;;;;28.80;46.63;100068.02;105549;1252;60546;-76
2023/06/22 09:04:58;;;;;;;12.30;11.10;;;;;;;28.99;45.79;100065.22;105745;1253;73923;-73
2023/06/22 09:07:26;;;;;;;15.90;12.00;;;;;;;29.09;44.91;100060.39;105938;1253;68852;-77
2023/06/22 09:09:55;;;;;;;12.20;11.00;;;;;;;29.17;44.10;100067.48;105826;1253;231721;-77
2023/06/22 09:13:02;;;;;;;12.50;11.40;;;;;;;29.25;42.79;100059.56;102839;1295;600594;-76
2023/06/22 09:15:30;;;;;;;13.00;11.80;;;;;;;29.26;42.98;100057.69;105791;1270;62287;-76
2023/06/22 09:17:58;;;;;;;11.80;10.70;;;;;;;29.29;42.81;100056.79;106021;1272;58873;-78
2023/06/22 09:20:26;;;;;;;12.90;11.60;;;;;;;29.33;43.16;100059.38;105733;1272;71954;-77
2023/06/22 09:22:54;;;;;;;12.60;11.40;;;;;;;29.46;45.06;100056.55;105232;1272;68966;-77
2023/06/22 09:25:21;;;;;;;12.40;11.20;;;;;;;29.65;44.60;100053.20;105331;1269;72471;-75
2023/06/22 09:27:49;;;;;;;12.90;11.60;;;;;;;29.78;43.13;100048.84;106684;1267;207892;-76
2023/06/22 09:30:16;;;;;;;11.60;10.50;;;;;;;29.98;42.55;100050.17;107548;1270;58755;-75
2023/06/22 09:32:44;;;;;;;13.60;11.50;;;;;;;30.29;43.25;100048.48;105294;1272;70731;-76
2023/06/22 09:35:13;;;;;;;11.90;10.90;;;;;;;30.77;42.55;100045.40;105033;1271;72647;-76
2023/06/22 09:37:41;;;;;;;13.30;12.20;;;;;;;31.40;42.35;100041.41;105108;1267;73186;-79
2023/06/22 09:40:10;;;;;;;11.70;10.70;;;;;;;32.07;41.90;100036.22;105265;1272;60221;-77
2023/06/22 09:42:38;;;;;;;11.00;10.10;;;;;;;32.79;39.20;100038.05;105363;1270;59663;-78
2023/06/22 09:45:06;;;;;;;12.00;10.80;;;;;;;33.39;37.77;100034.31;105138;1273;73181;-79
2023/06/22 09:47:34;;;;;;;11.10;10.10;;;;;;;33.88;35.91;100032.80;105593;1261;68430;-77
2023/06/22 09:50:01;;;;;;;11.60;10.50;;;;;;;34.13;35.37;100031.45;105535;1264;74887;-81
2023/06/22 09:52:29;;;;;;;11.40;10.20;;;;;;;34.44;35.86;100035.30;105780;1260;59730;-80
2023/06/22 09:55:15;;;;;;;11.00;10.10;;;;;;;34.96;34.88;100030.71;105768;1258;59936;-78
2023/06/22 09:57:43;;;;;;;11.50;10.40;;;;;;;35.48;33.94;100024.88;105834;1254;63128;-79
2023/06/22 10:00:13;;;;;;;10.10;9.30;;;;;;;35.92;33.36;100025.79;105792;1260;60094;-79
2023/06/22 10:02:43;;;;;;;10.60;9.60;;;;;;;36.35;33.17;100022.61;105835;1264;63759;-77
2023/06/22 10:05:12;;;;;;;11.20;10.20;;;;;;;36.75;32.41;100017.45;106027;1254;59640;-78
2023/06/22 10:07:43;;;;;;;10.90;9.70;;;;;;;36.82;31.93;100018.05;106271;1259;59595;-77
2023/06/22 10:10:11;;;;;;;10.00;9.20;;;;;;;36.64;31.81;100018.34;106521;1255;74455;-77
2023/06/22 10:12:48;;;;;;;9.40;8.60;;;;;;;36.35;32.85;100014.84;106020;1257;63528;-79
2023/06/22 10:15:15;;;;;;;11.70;10.50;;;;;;;35.82;31.21;100014.31;105957;1260;75337;-77
2023/06/22 10:17:43;;;;;;;12.60;11.40;;;;;;;35.16;32.07;100016.48;105909;1260;59842;-77
2023/06/22 10:20:12;;;;;;;11.90;10.40;;;;;;;34.56;33.09;100014.50;105692;1256;59568;-78
2023/06/22 10:22:41;;;;;;;11.60;10.50;;;;;;;33.98;33.93;100008.53;105901;1256;66492;-79
2023/06/22 10:25:09;;;;;;;11.80;10.70;;;;;;;33.37;34.76;100009.25;106535;1260;69009;-77
2023/06/22 10:27:39;;;;;;;11.80;10.80;;;;;;;32.93;35.52;100007.98;107854;1258;73700;-78
2023/06/22 10:30:09;;;;;;;10.90;9.80;;;;;;;32.95;36.77;100006.06;107515;1256;60641;-80
2023/06/22 10:32:38;;;;;;;11.60;10.60;;;;;;;33.35;36.09;100001.86;106446;1260;61037;-80
2023/06/22 10:35:05;;;;;;;11.40;10.40;;;;;;;33.97;34.89;99994.68;105950;1263;75322;-80
2023/06/22 10:37:33;;;;;;;11.40;10.40;;;;;;;34.64;34.39;99989.81;105930;1260;69104;-79
2023/06/22 10:40:01;;;;;;;11.60;10.40;;;;;;;35.34;33.25;99990.00;106078;1258;71531;-80
2023/06/22 10:42:28;;;;;;;10.30;9.50;;;;;;;36.00;31.65;99986.21;106059;1260;59824;-78
2023/06/22 10:44:55;;;;;;;10.60;9.60;;;;;;;36.59;31.49;99988.64;106189;1259;62206;-79
2023/06/22 10:47:23;;;;;;;10.20;9.30;;;;;;;37.16;31.14;99984.39;106467;1260;66449;-79
2023/06/22 10:49:52;;;;;;;10.40;9.50;;;;;;;37.74;30.13;99980.96;106621;1260;61015;-80
2023/06/22 10:52:20;;;;;;;10.40;9.30;;;;;;;37.92;29.31;99976.40;106556;1254;74824;-78
2023/06/22 10:54:48;;;;;;;10.40;9.40;;;;;;;37.57;29.64;99971.55;105789;1260;59699;-79
2023/06/22 10:57:15;;;;;;;10.70;9.50;;;;;;;37.10;29.94;99970.11;105573;1260;59552;-77
2023/06/22 10:59:43;;;;;;;10.20;9.40;;;;;;;36.76;30.29;99969.84;105605;1260;75212;-79
2023/06/22 11:02:20;;;;;;;9.70;8.90;;;;;;;36.92;30.51;99961.55;105836;1259;63573;-78
2023/06/22 11:04:50;;;;;;;9.90;8.90;;;;;;;37.49;30.01;99955.95;105703;1257;71664;-79
2023/06/22 11:07:18;;;;;;;10.30;9.30;;;;;;;38.00;29.46;99953.38;105844;1254;59720;-80
2023/06/22 11:09:45;;;;;;;9.70;8.90;;;;;;;38.49;29.71;99952.81;106007;1254;59586;-79
2023/06/22 11:12:13;;;;;;;8.60;7.70;;;;;;;39.01;28.31;99952.17;105777;1260;66246;-79